UAL2056 CYXC-CYVR
Flight info
| Callsign | UAL2056 |
|---|---|
| Flight time | 1h 2m |
| Altitude | 14000 |
| Route | CYXC/34 KOOTE1 PESVI LOCAN T800 FERRY CYVR/IZ26L |
| Aircraft | DH8D/M-VGDW/C |
Departure
| Time | 2026-05-03 21:54 |
|---|---|
| Airport | Cranbrook/Canadian Rockies International Airport (CYXC) |
Arrival
| Time | 2026-05-03 22:56 |
|---|---|
| Airport | Vancouver International Airport (CYVR) |
| Time | Latitude | Longitude | Altitude | Speed | Heading |
|---|---|---|---|---|---|
| 2026-05-03 21:30 | 49.61426 | -115.78583 | 3054 ft | 0 kts | 313° |
| 2026-05-03 21:49 | 49.61426 | -115.78584 | 3054 ft | 1 kts | 313° |
| 2026-05-03 21:49 | 49.61443 | -115.78580 | 3053 ft | 3 kts | 57° |
| 2026-05-03 21:49 | 49.61430 | -115.78532 | 3053 ft | 6 kts | 129° |
| 2026-05-03 21:49 | 49.61391 | -115.78501 | 3054 ft | 6 kts | 174° |
| 2026-05-03 21:50 | 49.61319 | -115.78501 | 3058 ft | 14 kts | 179° |
| 2026-05-03 21:50 | 49.61186 | -115.78497 | 3063 ft | 22 kts | 178° |
| 2026-05-03 21:50 | 49.61042 | -115.78494 | 3067 ft | 18 kts | 179° |
| 2026-05-03 21:50 | 49.60937 | -115.78450 | 3069 ft | 13 kts | 138° |
| 2026-05-03 21:51 | 49.60887 | -115.78370 | 3072 ft | 8 kts | 133° |
| 2026-05-03 21:51 | 49.60877 | -115.78354 | 3072 ft | 0 kts | 134° |
| 2026-05-03 21:51 | 49.60849 | -115.78309 | 3074 ft | 13 kts | 133° |
| 2026-05-03 21:52 | 49.60729 | -115.78199 | 3080 ft | 28 kts | 177° |
| 2026-05-03 21:52 | 49.60495 | -115.78189 | 3088 ft | 37 kts | 178° |
| 2026-05-03 21:52 | 49.60270 | -115.78190 | 3087 ft | 27 kts | 176° |
| 2026-05-03 21:52 | 49.60162 | -115.78126 | 3086 ft | 11 kts | 156° |
| 2026-05-03 21:53 | 49.60136 | -115.78186 | 3083 ft | 9 kts | 338° |
| 2026-05-03 21:53 | 49.60150 | -115.78188 | 3084 ft | 0 kts | 2° |
| 2026-05-03 21:53 | 49.60255 | -115.78187 | 3087 ft | 53 kts | 358° |
| 2026-05-03 21:53 | 49.60970 | -115.78206 | 3096 ft | 137 kts | 359° |
| 2026-05-03 21:54 | 49.61994 | -115.78231 | 3557 ft | 157 kts | 358° |
| 2026-05-03 21:54 | 49.63116 | -115.78231 | 4205 ft | 173 kts | 0° |
| 2026-05-03 21:54 | 49.64368 | -115.78224 | 4745 ft | 188 kts | 0° |
| 2026-05-03 21:54 | 49.65675 | -115.78233 | 5457 ft | 193 kts | 360° |
| 2026-05-03 21:55 | 49.67029 | -115.78249 | 6177 ft | 197 kts | 359° |
| 2026-05-03 21:55 | 49.68375 | -115.78271 | 6930 ft | 197 kts | 359° |
| 2026-05-03 21:55 | 49.69738 | -115.78294 | 7606 ft | 201 kts | 359° |
| 2026-05-03 21:55 | 49.71122 | -115.78320 | 8305 ft | 202 kts | 359° |
| 2026-05-03 21:56 | 49.72544 | -115.78354 | 8887 ft | 209 kts | 358° |
| 2026-05-03 21:56 | 49.73955 | -115.78973 | 9414 ft | 216 kts | 325° |
| 2026-05-03 21:56 | 49.74801 | -115.80878 | 9849 ft | 228 kts | 285° |
| 2026-05-03 21:56 | 49.74901 | -115.83321 | 10377 ft | 237 kts | 270° |
| 2026-05-03 21:57 | 49.74857 | -115.85900 | 10884 ft | 244 kts | 270° |
| 2026-05-03 21:57 | 49.74812 | -115.88560 | 11476 ft | 248 kts | 271° |
| 2026-05-03 21:57 | 49.74772 | -115.91201 | 12096 ft | 250 kts | 271° |
| 2026-05-03 21:57 | 49.74733 | -115.93891 | 12683 ft | 251 kts | 271° |
| 2026-05-03 21:58 | 49.74605 | -115.96583 | 13256 ft | 254 kts | 267° |
| 2026-05-03 21:58 | 49.74396 | -115.99281 | 13798 ft | 255 kts | 266° |
| 2026-05-03 21:58 | 49.74175 | -116.02030 | 14008 ft | 267 kts | 266° |
| 2026-05-03 21:58 | 49.73940 | -116.04957 | 14077 ft | 281 kts | 266° |
| 2026-05-03 21:59 | 49.73689 | -116.08043 | 14097 ft | 294 kts | 266° |
| 2026-05-03 21:59 | 49.73430 | -116.11202 | 14101 ft | 305 kts | 266° |
| 2026-05-03 21:59 | 49.73156 | -116.14518 | 14106 ft | 313 kts | 266° |
| 2026-05-03 21:59 | 49.72877 | -116.17877 | 14103 ft | 320 kts | 265° |
| 2026-05-03 22:00 | 49.72592 | -116.21301 | 14100 ft | 325 kts | 266° |
| 2026-05-03 22:00 | 49.72301 | -116.24776 | 14086 ft | 328 kts | 266° |
| 2026-05-03 22:00 | 49.72010 | -116.28243 | 14088 ft | 330 kts | 266° |
| 2026-05-03 22:00 | 49.71712 | -116.31772 | 14084 ft | 331 kts | 265° |
| 2026-05-03 22:01 | 49.71415 | -116.35273 | 14084 ft | 332 kts | 266° |
| 2026-05-03 22:01 | 49.71115 | -116.38811 | 14076 ft | 332 kts | 266° |
| 2026-05-03 22:01 | 49.70815 | -116.42326 | 14070 ft | 332 kts | 266° |
| 2026-05-03 22:01 | 49.70511 | -116.45863 | 14072 ft | 331 kts | 266° |
| 2026-05-03 22:02 | 49.70211 | -116.49332 | 14064 ft | 326 kts | 266° |
| 2026-05-03 22:02 | 49.69909 | -116.52803 | 14079 ft | 322 kts | 266° |
| 2026-05-03 22:02 | 49.69616 | -116.56171 | 14087 ft | 320 kts | 266° |
| 2026-05-03 22:02 | 49.69318 | -116.59589 | 14092 ft | 318 kts | 266° |
| 2026-05-03 22:03 | 49.69024 | -116.62956 | 14095 ft | 317 kts | 266° |
| 2026-05-03 22:03 | 49.68729 | -116.66322 | 14093 ft | 316 kts | 265° |
| 2026-05-03 22:03 | 49.68439 | -116.69629 | 14096 ft | 315 kts | 265° |
| 2026-05-03 22:03 | 49.68142 | -116.73006 | 14094 ft | 315 kts | 265° |
| 2026-05-03 22:04 | 49.67847 | -116.76344 | 14091 ft | 314 kts | 265° |
| 2026-05-03 22:04 | 49.67551 | -116.79679 | 14088 ft | 314 kts | 266° |
| 2026-05-03 22:04 | 49.67255 | -116.83006 | 14087 ft | 313 kts | 265° |
| 2026-05-03 22:04 | 49.66960 | -116.86318 | 14086 ft | 313 kts | 265° |
| 2026-05-03 22:05 | 49.66664 | -116.89629 | 14088 ft | 313 kts | 265° |
| 2026-05-03 22:05 | 49.66365 | -116.92956 | 14073 ft | 313 kts | 265° |
| 2026-05-03 22:05 | 49.66067 | -116.96262 | 14069 ft | 313 kts | 265° |
| 2026-05-03 22:05 | 49.65767 | -116.99578 | 14070 ft | 313 kts | 265° |
| 2026-05-03 22:06 | 49.65465 | -117.02911 | 14063 ft | 313 kts | 265° |
| 2026-05-03 22:06 | 49.65161 | -117.06252 | 14019 ft | 311 kts | 265° |
| 2026-05-03 22:06 | 49.64861 | -117.09507 | 14038 ft | 306 kts | 265° |
| 2026-05-03 22:06 | 49.64632 | -117.12708 | 14047 ft | 301 kts | 270° |
| 2026-05-03 22:07 | 49.64591 | -117.15916 | 14049 ft | 298 kts | 273° |
| 2026-05-03 22:07 | 49.64586 | -117.19099 | 14049 ft | 298 kts | 274° |
| 2026-05-03 22:07 | 49.64581 | -117.22333 | 14051 ft | 300 kts | 274° |
| 2026-05-03 22:07 | 49.64571 | -117.25528 | 14050 ft | 301 kts | 273° |
| 2026-05-03 22:08 | 49.64558 | -117.28739 | 14047 ft | 302 kts | 274° |
| 2026-05-03 22:08 | 49.64544 | -117.32007 | 14044 ft | 303 kts | 274° |
| 2026-05-03 22:08 | 49.64528 | -117.35226 | 14036 ft | 303 kts | 273° |
| 2026-05-03 22:08 | 49.64510 | -117.38469 | 14029 ft | 303 kts | 273° |
| 2026-05-03 22:09 | 49.64491 | -117.41697 | 14023 ft | 304 kts | 273° |
| 2026-05-03 22:09 | 49.64471 | -117.44947 | 14021 ft | 304 kts | 273° |
| 2026-05-03 22:09 | 49.64449 | -117.48200 | 14013 ft | 304 kts | 273° |
| 2026-05-03 22:10 | 49.64403 | -117.54711 | 14046 ft | 305 kts | 273° |
| 2026-05-03 22:10 | 49.64379 | -117.57993 | 14064 ft | 306 kts | 273° |
| 2026-05-03 22:10 | 49.64353 | -117.61288 | 14075 ft | 306 kts | 273° |
| 2026-05-03 22:10 | 49.64326 | -117.64568 | 14085 ft | 307 kts | 273° |
| 2026-05-03 22:11 | 49.64299 | -117.67844 | 14089 ft | 308 kts | 272° |
| 2026-05-03 22:11 | 49.64269 | -117.71158 | 14098 ft | 308 kts | 272° |
| 2026-05-03 22:11 | 49.64240 | -117.74450 | 14089 ft | 309 kts | 272° |
| 2026-05-03 22:11 | 49.64209 | -117.77721 | 14081 ft | 309 kts | 272° |
| 2026-05-03 22:12 | 49.64176 | -117.81039 | 14066 ft | 308 kts | 272° |
| 2026-05-03 22:12 | 49.64144 | -117.84333 | 14058 ft | 308 kts | 272° |
| 2026-05-03 22:12 | 49.64110 | -117.87636 | 14048 ft | 307 kts | 272° |
| 2026-05-03 22:12 | 49.64075 | -117.90918 | 14042 ft | 307 kts | 272° |
| 2026-05-03 22:13 | 49.64040 | -117.94209 | 14037 ft | 307 kts | 272° |
| 2026-05-03 22:13 | 49.64003 | -117.97480 | 14029 ft | 306 kts | 272° |
| 2026-05-03 22:13 | 49.63966 | -118.00774 | 14028 ft | 306 kts | 272° |
| 2026-05-03 22:13 | 49.63928 | -118.04011 | 14032 ft | 306 kts | 272° |
| 2026-05-03 22:14 | 49.63889 | -118.07310 | 14032 ft | 306 kts | 272° |
| 2026-05-03 22:14 | 49.63849 | -118.10590 | 14031 ft | 307 kts | 272° |
| 2026-05-03 22:14 | 49.63809 | -118.13869 | 14034 ft | 307 kts | 272° |
| 2026-05-03 22:14 | 49.63768 | -118.17175 | 14032 ft | 309 kts | 272° |
| 2026-05-03 22:15 | 49.63725 | -118.20473 | 14030 ft | 310 kts | 272° |
| 2026-05-03 22:15 | 49.63681 | -118.23778 | 14036 ft | 310 kts | 272° |
| 2026-05-03 22:15 | 49.63636 | -118.27124 | 14039 ft | 311 kts | 272° |
| 2026-05-03 22:15 | 49.63590 | -118.30454 | 14037 ft | 311 kts | 272° |
| 2026-05-03 22:16 | 49.63543 | -118.33778 | 14041 ft | 311 kts | 272° |
| 2026-05-03 22:16 | 49.63495 | -118.37073 | 14044 ft | 311 kts | 272° |
| 2026-05-03 22:16 | 49.63444 | -118.40440 | 14042 ft | 311 kts | 272° |
| 2026-05-03 22:16 | 49.63395 | -118.43742 | 14044 ft | 311 kts | 272° |
| 2026-05-03 22:17 | 49.63344 | -118.47071 | 14048 ft | 311 kts | 272° |
| 2026-05-03 22:17 | 49.63291 | -118.50423 | 14052 ft | 311 kts | 272° |
| 2026-05-03 22:17 | 49.63238 | -118.53748 | 14041 ft | 312 kts | 272° |
| 2026-05-03 22:17 | 49.63185 | -118.57089 | 14046 ft | 312 kts | 272° |
| 2026-05-03 22:18 | 49.63131 | -118.60419 | 14047 ft | 314 kts | 272° |
| 2026-05-03 22:18 | 49.63076 | -118.63822 | 14047 ft | 317 kts | 272° |
| 2026-05-03 22:18 | 49.63018 | -118.67224 | 14045 ft | 319 kts | 271° |
| 2026-05-03 22:18 | 49.62960 | -118.70622 | 14052 ft | 320 kts | 271° |
| 2026-05-03 22:19 | 49.62899 | -118.74075 | 14047 ft | 322 kts | 271° |
| 2026-05-03 22:19 | 49.62838 | -118.77508 | 14045 ft | 323 kts | 271° |
| 2026-05-03 22:19 | 49.62775 | -118.80927 | 14053 ft | 323 kts | 271° |
| 2026-05-03 22:19 | 49.62712 | -118.84406 | 14055 ft | 324 kts | 271° |
| 2026-05-03 22:20 | 49.62646 | -118.87882 | 14063 ft | 324 kts | 271° |
| 2026-05-03 22:20 | 49.62580 | -118.91333 | 14063 ft | 324 kts | 271° |
| 2026-05-03 22:20 | 49.62513 | -118.94786 | 14067 ft | 325 kts | 271° |
| 2026-05-03 22:20 | 49.62444 | -118.98270 | 14065 ft | 325 kts | 271° |
| 2026-05-03 22:21 | 49.62375 | -119.01759 | 14065 ft | 325 kts | 271° |
| 2026-05-03 22:21 | 49.62304 | -119.05220 | 14074 ft | 324 kts | 271° |
| 2026-05-03 22:21 | 49.62232 | -119.08675 | 14073 ft | 324 kts | 271° |
| 2026-05-03 22:21 | 49.62159 | -119.12154 | 14071 ft | 324 kts | 271° |
| 2026-05-03 22:22 | 49.62085 | -119.15623 | 14088 ft | 324 kts | 272° |
| 2026-05-03 22:22 | 49.62011 | -119.19060 | 14089 ft | 324 kts | 271° |
| 2026-05-03 22:22 | 49.61936 | -119.22523 | 14096 ft | 323 kts | 271° |
| 2026-05-03 22:22 | 49.61859 | -119.26001 | 14103 ft | 323 kts | 271° |
| 2026-05-03 22:23 | 49.61782 | -119.29456 | 14096 ft | 324 kts | 271° |
| 2026-05-03 22:23 | 49.61703 | -119.32918 | 14093 ft | 324 kts | 271° |
| 2026-05-03 22:23 | 49.61623 | -119.36385 | 14089 ft | 324 kts | 271° |
| 2026-05-03 22:23 | 49.61543 | -119.39832 | 14082 ft | 325 kts | 271° |
| 2026-05-03 22:24 | 49.61462 | -119.43276 | 14079 ft | 325 kts | 271° |
| 2026-05-03 22:24 | 49.61378 | -119.46779 | 14079 ft | 325 kts | 271° |
| 2026-05-03 22:24 | 49.61295 | -119.50223 | 14081 ft | 325 kts | 271° |
| 2026-05-03 22:24 | 49.61209 | -119.53734 | 14078 ft | 327 kts | 271° |
| 2026-05-03 22:25 | 49.61123 | -119.57231 | 14041 ft | 328 kts | 271° |
| 2026-05-03 22:25 | 49.61036 | -119.60701 | 14034 ft | 329 kts | 271° |
| 2026-05-03 22:25 | 49.60946 | -119.64212 | 14030 ft | 329 kts | 271° |
| 2026-05-03 22:25 | 49.60851 | -119.67742 | 14028 ft | 331 kts | 270° |
| 2026-05-03 22:26 | 49.60755 | -119.71304 | 14024 ft | 332 kts | 270° |
| 2026-05-03 22:26 | 49.60659 | -119.74859 | 13999 ft | 333 kts | 270° |
| 2026-05-03 22:26 | 49.60563 | -119.78419 | 14049 ft | 335 kts | 270° |
| 2026-05-03 22:26 | 49.60464 | -119.82020 | 14024 ft | 337 kts | 270° |
| 2026-05-03 22:27 | 49.60366 | -119.85598 | 14072 ft | 337 kts | 270° |
| 2026-05-03 22:27 | 49.60265 | -119.89201 | 14100 ft | 338 kts | 270° |
| 2026-05-03 22:27 | 49.60163 | -119.92841 | 14125 ft | 338 kts | 270° |
| 2026-05-03 22:27 | 49.60062 | -119.96422 | 14142 ft | 338 kts | 270° |
| 2026-05-03 22:28 | 49.59958 | -120.00053 | 14162 ft | 338 kts | 270° |
| 2026-05-03 22:28 | 49.59853 | -120.03669 | 14146 ft | 337 kts | 270° |
| 2026-05-03 22:28 | 49.59747 | -120.07296 | 14150 ft | 335 kts | 270° |
| 2026-05-03 22:28 | 49.59640 | -120.10864 | 14169 ft | 334 kts | 271° |
| 2026-05-03 22:29 | 49.59535 | -120.14428 | 14181 ft | 334 kts | 270° |
| 2026-05-03 22:29 | 49.59427 | -120.17987 | 14183 ft | 333 kts | 270° |
| 2026-05-03 22:29 | 49.59318 | -120.21548 | 14176 ft | 332 kts | 270° |
| 2026-05-03 22:29 | 49.59208 | -120.25108 | 14176 ft | 331 kts | 270° |
| 2026-05-03 22:30 | 49.59098 | -120.28649 | 14166 ft | 331 kts | 270° |
| 2026-05-03 22:30 | 49.58987 | -120.32198 | 14152 ft | 331 kts | 270° |
| 2026-05-03 22:30 | 49.58876 | -120.35706 | 14148 ft | 331 kts | 270° |
| 2026-05-03 22:30 | 49.58762 | -120.39273 | 14136 ft | 331 kts | 270° |
| 2026-05-03 22:31 | 49.58648 | -120.42825 | 14124 ft | 331 kts | 270° |
| 2026-05-03 22:31 | 49.58534 | -120.46356 | 14115 ft | 332 kts | 270° |
| 2026-05-03 22:31 | 49.58418 | -120.49902 | 14099 ft | 333 kts | 270° |
| 2026-05-03 22:31 | 49.58300 | -120.53455 | 14097 ft | 334 kts | 270° |
| 2026-05-03 22:32 | 49.58182 | -120.56990 | 14109 ft | 334 kts | 270° |
| 2026-05-03 22:32 | 49.58060 | -120.60596 | 14112 ft | 335 kts | 270° |
| 2026-05-03 22:32 | 49.57939 | -120.64183 | 14123 ft | 336 kts | 270° |
| 2026-05-03 22:32 | 49.57816 | -120.67776 | 14129 ft | 337 kts | 270° |
| 2026-05-03 22:33 | 49.57690 | -120.71392 | 14135 ft | 338 kts | 269° |
| 2026-05-03 22:33 | 49.57563 | -120.75000 | 14141 ft | 337 kts | 269° |
| 2026-05-03 22:33 | 49.57437 | -120.78582 | 14141 ft | 338 kts | 269° |
| 2026-05-03 22:33 | 49.57309 | -120.82198 | 14157 ft | 338 kts | 269° |
| 2026-05-03 22:34 | 49.57178 | -120.85815 | 14161 ft | 338 kts | 269° |
| 2026-05-03 22:34 | 49.57048 | -120.89387 | 14152 ft | 337 kts | 269° |
| 2026-05-03 22:34 | 49.56916 | -120.93021 | 14128 ft | 337 kts | 269° |
| 2026-05-03 22:34 | 49.56783 | -120.96589 | 14132 ft | 337 kts | 269° |
| 2026-05-03 22:35 | 49.56649 | -121.00183 | 14119 ft | 336 kts | 269° |
| 2026-05-03 22:35 | 49.56515 | -121.03748 | 14117 ft | 335 kts | 269° |
| 2026-05-03 22:35 | 49.56379 | -121.07340 | 14103 ft | 334 kts | 269° |
| 2026-05-03 22:35 | 49.56244 | -121.10890 | 14098 ft | 334 kts | 269° |
| 2026-05-03 22:36 | 49.56107 | -121.14457 | 14086 ft | 333 kts | 269° |
| 2026-05-03 22:36 | 49.55969 | -121.18014 | 14072 ft | 333 kts | 269° |
| 2026-05-03 22:36 | 49.55830 | -121.21555 | 14055 ft | 332 kts | 269° |
| 2026-05-03 22:36 | 49.55690 | -121.25116 | 14049 ft | 332 kts | 269° |
| 2026-05-03 22:37 | 49.55551 | -121.28617 | 14058 ft | 332 kts | 269° |
| 2026-05-03 22:37 | 49.55409 | -121.32170 | 14057 ft | 332 kts | 269° |
| 2026-05-03 22:37 | 49.55266 | -121.35725 | 14057 ft | 333 kts | 269° |
| 2026-05-03 22:37 | 49.55122 | -121.39259 | 14051 ft | 333 kts | 269° |
| 2026-05-03 22:38 | 49.54976 | -121.42844 | 14045 ft | 333 kts | 269° |
| 2026-05-03 22:38 | 49.54830 | -121.46387 | 14051 ft | 333 kts | 269° |
| 2026-05-03 22:38 | 49.54682 | -121.49934 | 14053 ft | 333 kts | 269° |
| 2026-05-03 22:38 | 49.54533 | -121.53511 | 14051 ft | 334 kts | 269° |
| 2026-05-03 22:39 | 49.54385 | -121.57021 | 14046 ft | 334 kts | 269° |
| 2026-05-03 22:39 | 49.54235 | -121.60582 | 14050 ft | 334 kts | 269° |
| 2026-05-03 22:39 | 49.54080 | -121.64187 | 14041 ft | 335 kts | 269° |
| 2026-05-03 22:39 | 49.53927 | -121.67756 | 14043 ft | 335 kts | 269° |
| 2026-05-03 22:40 | 49.53772 | -121.71333 | 14039 ft | 335 kts | 268° |
| 2026-05-03 22:40 | 49.53616 | -121.74886 | 14044 ft | 336 kts | 268° |
| 2026-05-03 22:40 | 49.53458 | -121.78496 | 14023 ft | 337 kts | 268° |
| 2026-05-03 22:40 | 49.53299 | -121.82084 | 14023 ft | 336 kts | 268° |
| 2026-05-03 22:41 | 49.53140 | -121.85635 | 14021 ft | 334 kts | 268° |
| 2026-05-03 22:41 | 49.52979 | -121.89196 | 14026 ft | 332 kts | 268° |
| 2026-05-03 22:41 | 49.52821 | -121.92677 | 14008 ft | 329 kts | 268° |
| 2026-05-03 22:41 | 49.52661 | -121.96158 | 14009 ft | 324 kts | 268° |
| 2026-05-03 22:42 | 49.52502 | -121.99590 | 14004 ft | 321 kts | 269° |
| 2026-05-03 22:42 | 49.52321 | -122.03024 | 13772 ft | 326 kts | 265° |
| 2026-05-03 22:42 | 49.51586 | -122.06364 | 13493 ft | 330 kts | 244° |
| 2026-05-03 22:42 | 49.50428 | -122.09351 | 13116 ft | 327 kts | 239° |
| 2026-05-03 22:43 | 49.49235 | -122.12258 | 12761 ft | 317 kts | 239° |
| 2026-05-03 22:43 | 49.48073 | -122.15093 | 12437 ft | 308 kts | 239° |
| 2026-05-03 22:43 | 49.46950 | -122.17841 | 12096 ft | 301 kts | 239° |
| 2026-05-03 22:43 | 49.45866 | -122.20534 | 11779 ft | 297 kts | 240° |
| 2026-05-03 22:44 | 49.44793 | -122.23229 | 11471 ft | 294 kts | 240° |
| 2026-05-03 22:44 | 49.43740 | -122.25871 | 11149 ft | 291 kts | 240° |
| 2026-05-03 22:44 | 49.42693 | -122.28500 | 10831 ft | 285 kts | 239° |
| 2026-05-03 22:44 | 49.41668 | -122.31070 | 10506 ft | 280 kts | 239° |
| 2026-05-03 22:45 | 49.40668 | -122.33575 | 10191 ft | 275 kts | 239° |
| 2026-05-03 22:45 | 49.39551 | -122.35973 | 9913 ft | 274 kts | 231° |
| 2026-05-03 22:45 | 49.38309 | -122.38157 | 9629 ft | 275 kts | 229° |
| 2026-05-03 22:45 | 49.37028 | -122.40351 | 9328 ft | 274 kts | 229° |
| 2026-05-03 22:46 | 49.35765 | -122.42516 | 9040 ft | 273 kts | 229° |
| 2026-05-03 22:46 | 49.34512 | -122.44658 | 8730 ft | 272 kts | 228° |
| 2026-05-03 22:46 | 49.33241 | -122.46812 | 8432 ft | 270 kts | 228° |
| 2026-05-03 22:46 | 49.31990 | -122.48932 | 8131 ft | 267 kts | 228° |
| 2026-05-03 22:47 | 49.30758 | -122.51021 | 7845 ft | 265 kts | 229° |
| 2026-05-03 22:47 | 49.29531 | -122.53103 | 7551 ft | 263 kts | 229° |
| 2026-05-03 22:47 | 49.28322 | -122.55153 | 7269 ft | 259 kts | 229° |
| 2026-05-03 22:47 | 49.27125 | -122.57191 | 7089 ft | 253 kts | 229° |
| 2026-05-03 22:48 | 49.25961 | -122.59177 | 6941 ft | 250 kts | 229° |
| 2026-05-03 22:48 | 49.24793 | -122.61168 | 6492 ft | 252 kts | 229° |
| 2026-05-03 22:48 | 49.23636 | -122.63134 | 6159 ft | 244 kts | 229° |
| 2026-05-03 22:48 | 49.22514 | -122.65038 | 5871 ft | 239 kts | 228° |
| 2026-05-03 22:49 | 49.21419 | -122.66900 | 5610 ft | 236 kts | 228° |
| 2026-05-03 22:49 | 49.20324 | -122.68740 | 5362 ft | 233 kts | 226° |
| 2026-05-03 22:49 | 49.19197 | -122.70483 | 5092 ft | 231 kts | 225° |
| 2026-05-03 22:49 | 49.18071 | -122.72214 | 4832 ft | 230 kts | 225° |
| 2026-05-03 22:50 | 49.16953 | -122.73941 | 4578 ft | 229 kts | 225° |
| 2026-05-03 22:50 | 49.15836 | -122.75668 | 4301 ft | 228 kts | 226° |
| 2026-05-03 22:50 | 49.14721 | -122.77386 | 4042 ft | 226 kts | 226° |
| 2026-05-03 22:50 | 49.13961 | -122.79437 | 3731 ft | 223 kts | 262° |
| 2026-05-03 22:51 | 49.14211 | -122.81660 | 3591 ft | 210 kts | 295° |
| 2026-05-03 22:51 | 49.14663 | -122.83740 | 3471 ft | 209 kts | 283° |
| 2026-05-03 22:51 | 49.14920 | -122.85933 | 3350 ft | 208 kts | 282° |
| 2026-05-03 22:51 | 49.15204 | -122.88071 | 3237 ft | 206 kts | 282° |
| 2026-05-03 22:52 | 49.15471 | -122.90227 | 3107 ft | 205 kts | 282° |
| 2026-05-03 22:52 | 49.15724 | -122.92352 | 3012 ft | 203 kts | 282° |
| 2026-05-03 22:52 | 49.15979 | -122.94496 | 2819 ft | 207 kts | 281° |
| 2026-05-03 22:52 | 49.16226 | -122.96629 | 2567 ft | 198 kts | 281° |
| 2026-05-03 22:53 | 49.16449 | -122.98570 | 2269 ft | 180 kts | 282° |
| 2026-05-03 22:53 | 49.16656 | -123.00353 | 1989 ft | 164 kts | 282° |
| 2026-05-03 22:53 | 49.16853 | -123.02022 | 1825 ft | 156 kts | 282° |
| 2026-05-03 22:53 | 49.17041 | -123.03629 | 1655 ft | 151 kts | 282° |
| 2026-05-03 22:54 | 49.17227 | -123.05217 | 1447 ft | 152 kts | 282° |
| 2026-05-03 22:54 | 49.17407 | -123.06779 | 1236 ft | 148 kts | 281° |
| 2026-05-03 22:54 | 49.17576 | -123.08293 | 1023 ft | 140 kts | 281° |
| 2026-05-03 22:54 | 49.17738 | -123.09715 | 774 ft | 134 kts | 281° |
| 2026-05-03 22:55 | 49.17898 | -123.11101 | 628 ft | 132 kts | 281° |
| 2026-05-03 22:55 | 49.18055 | -123.12493 | 499 ft | 134 kts | 280° |
| 2026-05-03 22:55 | 49.18223 | -123.13885 | 329 ft | 132 kts | 280° |
| 2026-05-03 22:55 | 49.18375 | -123.15225 | 163 ft | 123 kts | 279° |
| 2026-05-03 22:56 | 49.18512 | -123.16460 | 27 ft | 111 kts | 280° |
| 2026-05-03 22:56 | 49.18632 | -123.17453 | 17 ft | 71 kts | 280° |
| 2026-05-03 22:56 | 49.18695 | -123.18023 | 20 ft | 41 kts | 279° |
| 2026-05-03 22:56 | 49.18737 | -123.18353 | 20 ft | 19 kts | 299° |
| 2026-05-03 22:57 | 49.18787 | -123.18359 | 20 ft | 8 kts | 59° |
| 2026-05-03 22:57 | 49.18825 | -123.18211 | 20 ft | 11 kts | 70° |
| 2026-05-03 22:57 | 49.18842 | -123.18141 | 20 ft | 8 kts | 68° |
| 2026-05-03 22:57 | 49.18889 | -123.18089 | 20 ft | 9 kts | 11° |
| 2026-05-03 22:58 | 49.18952 | -123.18078 | 20 ft | 9 kts | 6° |
| 2026-05-03 22:58 | 49.19015 | -123.18060 | 20 ft | 9 kts | 12° |
| 2026-05-03 22:58 | 49.19069 | -123.18041 | 20 ft | 5 kts | 30° |
| 2026-05-03 22:58 | 49.19091 | -123.17990 | 20 ft | 5 kts | 51° |
| 2026-05-03 22:59 | 49.19112 | -123.17963 | 20 ft | 2 kts | 34° |
| 2026-05-03 22:59 | 49.19128 | -123.17947 | 20 ft | 0 kts | 33° |